Terminal Aerodrome Forecast
Issued by NWS

Home | Current Version | Previous Version | Text Only | Print | Product List | Glossary On
Versions: 1 2 3 4 5 6 7 8 9 10 11 12 13 14 15 16 17 18 19 20 21
000
FTUS41 KBGM 260500
TAFRME
TAF
KRME 260533Z 2606/2706 30005KT P6SM BKN050 BKN250
     FM261400 35009KT P6SM OVC050
      TEMPO 2614/2616 2SM -SN OVC015
     FM261600 01008KT 1SM -SN OVC012
     FM270300 31009KT 2SM -SN OVC018=

USA.gov is the U.S. government's official web portal to all federal, state and local government web resources and services.